Time;durP1;ratioP1;P1;durP2;ratioP2;P2;SDS_P1;SDS_P2;PMS_P1;PMS_P2;Temp;Humidity;BMP_temperature;BMP_pressure;BME280_temperature;BME280_humidity;BME280_pressure;Samples;Min_cycle;Max_cycle;Signal;HPM_P1;HPM_P2
2022/04/09 00:02:30;;;;;;;17.67;10.27;;;;;;;11.69;100.00;98393.94;6295539;28;20047;-78
2022/04/09 00:05:31;;;;;;;14.52;9.45;;;;;;;11.69;100.00;98400.94;6295301;28;20051;-78
2022/04/09 00:08:32;;;;;;;16.38;9.70;;;;;;;11.75;100.00;98410.84;6312085;28;20098;-77
2022/04/09 00:11:33;;;;;;;14.98;9.35;;;;;;;11.68;100.00;98400.13;6295058;28;20182;-78
2022/04/09 00:14:34;;;;;;;19.63;10.32;;;;;;;11.67;100.00;98403.72;6296676;28;20158;-78
2022/04/09 00:17:43;;;;;;;15.05;9.32;;;;;;;11.62;100.00;98400.69;6295281;28;20404;-78
2022/04/09 00:20:44;;;;;;;16.33;9.27;;;;;;;11.59;100.00;98395.75;6295417;28;20166;-78
2022/04/09 00:23:45;;;;;;;13.30;9.20;;;;;;;11.66;100.00;98396.00;6299733;28;20506;-78
2022/04/09 00:26:45;;;;;;;14.23;9.77;;;;;;;11.60;100.00;98400.00;6320268;28;20097;-79
2022/04/09 00:29:46;;;;;;;16.17;9.60;;;;;;;11.62;100.00;98402.50;6303609;28;20048;-78
2022/04/09 00:32:47;;;;;;;15.07;9.38;;;;;;;11.47;100.00;98408.16;6303597;28;20072;-79
2022/04/09 00:35:48;;;;;;;19.35;10.88;;;;;;;11.51;100.00;98400.88;6324644;28;20074;-78
2022/04/09 00:38:49;;;;;;;12.98;8.73;;;;;;;11.39;100.00;98394.13;6308302;28;20385;-78
2022/04/09 00:41:50;;;;;;;16.13;9.52;;;;;;;11.33;100.00;98400.72;6308263;28;20115;-78
2022/04/09 00:44:51;;;;;;;17.23;10.50;;;;;;;11.34;100.00;98399.75;6325231;28;20718;-78
2022/04/09 00:47:52;;;;;;;15.55;10.20;;;;;;;11.19;100.00;98378.47;6324976;28;20114;-78
2022/04/09 00:50:54;;;;;;;15.65;9.98;;;;;;;11.34;100.00;98399.75;6324780;28;20040;-78
2022/04/09 00:53:56;;;;;;;;;;;;;;;11.32;100.00;98399.06;6326489;28;20040;-78
2022/04/09 00:57:05;;;;;;;15.37;9.23;;;;;;;11.26;100.00;98387.41;6324429;28;19924;-78
2022/04/09 01:00:09;;;;;;;14.13;8.75;;;;;;;11.29;100.00;98389.72;6324657;28;20052;-78
2022/04/09 01:03:20;;;;;;;13.30;8.48;;;;;;;11.37;100.00;98381.22;6307700;28;20070;-78
2022/04/09 01:06:21;;;;;;;15.93;8.55;;;;;;;11.48;100.00;98352.31;6341345;28;20484;-78
2022/04/09 01:09:22;;;;;;;15.20;8.43;;;;;;;11.54;100.00;98353.56;6324302;28;20047;-78
2022/04/09 01:12:23;;;;;;;11.55;7.88;;;;;;;11.56;100.00;98346.41;6307231;28;20064;-78
2022/04/09 01:15:24;;;;;;;13.25;7.72;;;;;;;11.50;100.00;98331.28;6325541;28;20072;-78
2022/04/09 01:18:24;;;;;;;17.00;7.68;;;;;;;11.62;100.00;98326.72;6325342;28;20035;-78
2022/04/09 01:21:26;;;;;;;10.43;7.40;;;;;;;11.63;100.00;98286.56;6324266;28;20130;-78
2022/04/09 01:24:27;;;;;;;13.18;7.38;;;;;;;11.52;100.00;98268.47;6274038;28;20083;-78
2022/04/09 01:27:28;;;;;;;14.20;7.25;;;;;;;11.46;100.00;98236.72;6299492;28;20058;-78
2022/04/09 01:30:30;;;;;;;12.77;6.80;;;;;;;11.55;100.00;98253.34;6314791;28;20047;-84
2022/04/09 01:33:30;;;;;;;15.55;7.95;;;;;;;11.48;100.00;98247.03;6299028;28;20053;-83
2022/04/09 01:36:31;;;;;;;15.95;7.68;;;;;;;11.42;100.00;98252.81;6315367;28;20052;-82
2022/04/09 01:39:32;;;;;;;12.32;7.15;;;;;;;11.38;100.00;98259.31;6298636;28;20045;-83
2022/04/09 01:42:33;;;;;;;15.43;8.27;;;;;;;11.46;100.00;98238.53;6315418;28;20040;-84
2022/04/09 01:45:35;;;;;;;14.27;8.25;;;;;;;11.33;100.00;98230.19;6297690;28;20048;-83
2022/04/09 01:48:35;;;;;;;14.52;8.60;;;;;;;11.27;100.00;98234.19;6299641;28;20041;-83
2022/04/09 01:51:36;;;;;;;14.88;9.18;;;;;;;11.40;100.00;98249.53;6315046;28;20059;-83
2022/04/09 01:54:37;;;;;;;15.43;8.13;;;;;;;11.38;100.00;98259.31;6298281;28;20040;-84
2022/04/09 01:57:38;;;;;;;12.10;7.32;;;;;;;11.49;100.00;98267.78;6281453;28;20131;-84
2022/04/09 02:00:39;;;;;;;16.30;8.98;;;;;;;11.45;100.00;98255.97;6314934;28;20047;-83
2022/04/09 02:03:39;;;;;;;12.50;7.97;;;;;;;11.60;100.00;98258.94;6298230;28;20102;-84
2022/04/09 02:06:42;;;;;;;18.23;8.40;;;;;;;11.62;100.00;98248.38;6297743;28;20047;-77
2022/04/09 02:09:43;;;;;;;17.58;9.63;;;;;;;11.62;100.00;98228.28;6298927;28;20075;-77
2022/04/09 02:12:45;;;;;;;15.75;8.15;;;;;;;11.63;100.00;98243.00;6314350;28;20040;-77
2022/04/09 02:15:45;;;;;;;16.75;8.35;;;;;;;11.63;100.00;98250.00;6297712;28;20051;-77
2022/04/09 02:18:46;;;;;;;13.82;8.35;;;;;;;11.62;100.00;98251.78;6297499;28;20127;-77
2022/04/09 02:21:47;;;;;;;14.57;7.70;;;;;;;11.60;100.00;98243.28;6297406;28;20515;-83
2022/04/09 02:24:51;;;;;;;15.30;7.57;;;;;;;11.61;100.00;98244.94;6280975;28;20040;-83
2022/04/09 02:27:52;;;;;;;13.45;8.05;;;;;;;11.62;100.00;98236.13;6280884;28;20037;-83
2022/04/09 02:30:53;;;;;;;15.00;7.78;;;;;;;11.61;100.00;98249.31;6314291;28;20102;-83
2022/04/09 02:33:56;;;;;;;13.73;8.02;;;;;;;11.55;100.00;98242.91;6297283;28;20051;-83
2022/04/09 02:36:57;;;;;;;12.50;7.38;;;;;;;11.56;100.00;98257.59;6313717;28;20048;-83
2022/04/09 02:39:58;;;;;;;15.35;8.38;;;;;;;11.48;100.00;98247.03;6280435;28;20044;-83
2022/04/09 02:42:58;;;;;;;17.13;8.70;;;;;;;11.41;100.00;98262.47;6298215;28;20043;-83
2022/04/09 02:45:59;;;;;;;13.55;7.63;;;;;;;11.27;100.00;98255.06;6313611;28;20051;-83
2022/04/09 02:49:00;;;;;;;13.10;6.57;;;;;;;11.27;100.00;98258.50;6296852;28;20089;-81
2022/04/09 02:52:01;;;;;;;12.10;6.25;;;;;;;11.27;100.00;98268.94;6296911;28;20044;-82
2022/04/09 02:55:03;;;;;;;11.43;5.57;;;;;;;11.30;100.00;98260.00;6313615;28;20087;-83
2022/04/09 02:58:04;;;;;;;10.73;4.75;;;;;;;11.24;100.00;98269.25;6295866;28;20412;-82
2022/04/09 03:01:06;;;;;;;13.15;4.38;;;;;;;11.33;100.00;98261.53;6296405;28;20055;-82
2022/04/09 03:04:07;;;;;;;10.73;4.65;;;;;;;11.35;100.00;98254.38;6297765;28;20109;-83
2022/04/09 03:07:07;;;;;;;9.55;4.60;;;;;;;11.37;100.00;98258.47;6297529;28;20423;-77
2022/04/09 03:10:09;;;;;;;7.28;4.03;;;;;;;11.23;100.00;98262.38;6312312;28;20063;-76
2022/04/09 03:13:10;;;;;;;7.13;4.10;;;;;;;11.19;100.00;98253.16;6295075;28;20097;-77
2022/04/09 03:16:11;;;;;;;6.43;3.80;;;;;;;11.08;100.00;98248.13;6295749;28;20036;-77
2022/04/09 03:19:12;;;;;;;8.30;3.47;;;;;;;11.14;100.00;98233.66;6296156;28;20124;-77
2022/04/09 03:22:12;;;;;;;6.75;3.70;;;;;;;11.05;100.00;98230.94;6296078;28;20047;-77
2022/04/09 03:25:13;;;;;;;8.30;3.17;;;;;;;11.01;100.00;98241.81;6295966;28;20047;-77
2022/04/09 03:28:14;;;;;;;6.38;3.20;;;;;;;10.94;100.00;98231.13;6295710;28;20052;-77
2022/04/09 03:31:16;;;;;;;6.57;2.72;;;;;;;10.88;100.00;98242.09;6312635;28;20400;-77
2022/04/09 03:34:17;;;;;;;8.07;3.08;;;;;;;10.92;100.00;98276.59;6279302;28;20132;-76
2022/04/09 03:37:17;;;;;;;5.40;2.78;;;;;;;11.02;100.00;98287.84;6312693;28;20036;-76
2022/04/09 03:40:18;;;;;;;5.90;3.33;;;;;;;10.89;100.00;98278.50;6312355;28;20131;-77
2022/04/09 03:43:19;;;;;;;8.18;3.90;;;;;;;10.93;100.00;98271.19;6296917;28;20044;-77
2022/04/09 03:46:20;;;;;;;7.32;3.72;;;;;;;11.06;100.00;98297.84;6296714;28;20040;-77
2022/04/09 03:49:21;;;;;;;6.78;3.60;;;;;;;10.89;100.00;98301.16;6295705;28;20493;-77
2022/04/09 03:52:21;;;;;;;7.78;4.20;;;;;;;10.97;100.00;98303.06;6295404;28;20049;-78
2022/04/09 03:55:22;;;;;;;7.60;4.38;;;;;;;11.01;100.00;98302.66;6296576;28;20057;-77
2022/04/09 03:58:24;;;;;;;8.00;4.22;;;;;;;11.04;100.00;98310.22;6295366;28;20123;-77
2022/04/09 04:01:27;;;;;;;8.90;4.38;;;;;;;10.89;100.00;98298.53;6295440;28;20078;-77
2022/04/09 04:04:27;;;;;;;6.53;4.72;;;;;;;10.98;100.00;98315.16;6312034;28;20049;-83
2022/04/09 04:07:31;;;;;;;9.23;5.00;;;;;;;11.05;100.00;98311.03;6296615;28;20036;-82
2022/04/09 04:10:35;;;;;;;7.53;5.03;;;;;;;11.11;100.00;98314.88;6319571;28;20480;-84
2022/04/09 04:13:38;;;;;;;8.27;5.03;;;;;;;11.04;100.00;98323.25;6303578;28;20501;-83
2022/04/09 04:16:38;;;;;;;;;;;;;;;11.13;100.00;98329.44;6304016;28;20136;-83
2022/04/09 04:19:39;;;;;;;10.30;5.55;;;;;;;11.23;100.00;98308.53;6286892;28;19920;-84
2022/04/09 04:22:40;;;;;;;12.45;6.70;;;;;;;11.19;100.00;98315.00;6304848;28;20067;-82
2022/04/09 04:25:41;;;;;;;11.35;5.90;;;;;;;11.26;100.00;98310.84;6303476;28;20416;-82
2022/04/09 04:28:42;;;;;;;8.93;5.63;;;;;;;11.41;100.00;98306.84;6303415;28;20060;-83
2022/04/09 04:31:43;;;;;;;12.13;5.85;;;;;;;11.31;100.00;98310.47;6286886;28;20566;-83
2022/04/09 04:34:43;;;;;;;9.45;6.18;;;;;;;11.26;100.00;98288.22;6304622;28;20037;-83
2022/04/09 04:37:46;;;;;;;9.48;5.82;;;;;;;11.39;100.00;98287.88;6320342;28;20045;-83
2022/04/09 04:40:47;;;;;;;9.98;5.50;;;;;;;11.29;100.00;98294.91;6303333;28;20097;-83
2022/04/09 04:43:51;;;;;;;9.88;5.60;;;;;;;11.32;100.00;98312.91;6302640;28;20049;-78
2022/04/09 04:46:52;;;;;;;11.65;5.85;;;;;;;11.24;100.00;98359.78;6318472;28;20036;-78
2022/04/09 04:49:53;;;;;;;18.58;9.98;;;;;;;11.36;100.00;98345.59;6286043;28;20189;-77
2022/04/09 04:52:53;;;;;;;17.38;9.43;;;;;;;11.26;100.00;98322.16;6303179;28;20059;-78
2022/04/09 04:55:54;;;;;;;21.98;12.48;;;;;;;11.36;100.00;98313.47;6303160;28;20133;-78
2022/04/09 04:58:55;;;;;;;15.07;8.18;;;;;;;11.32;100.00;98320.75;6286729;28;20098;-77
2022/04/09 05:01:56;;;;;;;46.53;27.83;;;;;;;11.40;100.00;98318.25;6286389;28;20053;-78
2022/04/09 05:04:57;;;;;;;17.73;9.32;;;;;;;11.33;100.00;98309.34;6269850;28;20056;-78
2022/04/09 05:07:57;;;;;;;13.20;5.32;;;;;;;11.31;100.00;98285.16;6303245;28;20048;-77
2022/04/09 05:10:58;;;;;;;10.48;5.88;;;;;;;11.28;100.00;98288.03;6302970;28;20075;-77
2022/04/09 05:13:59;;;;;;;20.10;11.68;;;;;;;11.36;100.00;98289.94;6302850;28;20055;-77
2022/04/09 05:17:00;;;;;;;7.97;4.47;;;;;;;11.23;100.00;98285.84;6286230;28;20040;-78
2022/04/09 05:20:03;;;;;;;10.30;5.50;;;;;;;11.32;100.00;98296.41;6268046;28;20477;-78
2022/04/09 05:23:04;;;;;;;27.02;14.40;;;;;;;11.19;100.00;98307.16;6300043;28;20045;-78
2022/04/09 05:26:04;;;;;;;10.52;7.50;;;;;;;11.33;100.00;98309.34;6282332;28;20055;-78
2022/04/09 05:29:05;;;;;;;12.32;9.05;;;;;;;11.39;100.00;98344.53;6282104;28;20532;-78
2022/04/09 05:32:06;;;;;;;7.75;5.15;;;;;;;11.39;100.00;98361.00;6298802;28;20052;-78
2022/04/09 05:35:08;;;;;;;11.60;5.97;;;;;;;11.38;100.00;98374.19;6298641;28;20504;-84
2022/04/09 05:38:09;;;;;;;9.38;4.43;;;;;;;11.44;100.00;98374.44;6282128;28;20127;-84
2022/04/09 05:41:10;;;;;;;6.38;3.90;;;;;;;11.58;100.00;98382.84;6298731;28;20044;-83
2022/04/09 05:44:11;;;;;;;6.43;3.75;;;;;;;11.58;100.00;98380.22;6298573;28;20688;-84
2022/04/09 05:47:12;;;;;;;8.75;5.35;;;;;;;11.68;100.00;98386.25;6298398;28;20065;-84
2022/04/09 05:50:14;;;;;;;8.10;4.97;;;;;;;11.77;100.00;98392.41;6298145;28;20055;-84
2022/04/09 05:53:15;;;;;;;;;;;;;;;11.76;100.00;98404.66;6300024;28;20052;-82
2022/04/09 05:56:15;;;;;;;5.97;2.97;;;;;;;11.78;100.00;98420.19;6281627;28;19925;-83
2022/04/09 05:59:16;;;;;;;3.80;2.78;;;;;;;11.65;100.00;98428.31;6298215;28;20075;-83
2022/04/09 06:02:17;;;;;;;5.75;2.97;;;;;;;11.54;100.00;98434.53;6299307;28;20060;-83
2022/04/09 06:05:18;;;;;;;4.93;2.42;;;;;;;11.56;100.00;98450.88;6297903;28;20053;-83
2022/04/09 06:08:19;;;;;;;4.18;2.28;;;;;;;11.43;100.00;98458.19;6298048;28;20484;-77
2022/04/09 06:11:20;;;;;;;2.55;1.65;;;;;;;11.37;100.00;98448.28;6297755;28;20060;-78
2022/04/09 06:14:21;;;;;;;2.65;1.58;;;;;;;11.22;100.00;98455.69;6297680;28;20049;-78
2022/04/09 06:17:25;;;;;;;2.85;1.13;;;;;;;11.19;100.00;98462.00;6297812;28;20506;-78
2022/04/09 06:20:26;;;;;;;1.38;1.02;;;;;;;11.18;100.00;98454.31;6297732;28;20060;-78
2022/04/09 06:23:26;;;;;;;4.10;1.05;;;;;;;11.05;100.00;98439.72;6297719;28;20082;-78
2022/04/09 06:26:28;;;;;;;7.15;2.03;;;;;;;10.97;100.00;98433.56;6297500;28;20402;-82
2022/04/09 06:29:29;;;;;;;3.03;1.60;;;;;;;10.95;100.00;98441.50;6297564;28;20040;-79
2022/04/09 06:32:30;;;;;;;5.50;2.30;;;;;;;10.89;100.00;98442.03;6297112;28;20621;-83
2022/04/09 06:35:31;;;;;;;6.32;2.15;;;;;;;10.76;100.00;98450.13;6297338;28;20045;-84
2022/04/09 06:38:33;;;;;;;6.13;2.15;;;;;;;10.72;100.00;98448.75;6297294;28;20516;-82
2022/04/09 06:41:35;;;;;;;;;;;;;;;10.90;100.00;98433.28;6298692;28;20547;-83
2022/04/09 06:44:36;;;;;;;6.13;2.55;;;;;;;10.80;100.00;98422.81;6264071;28;20027;-84
2022/04/09 06:47:40;;;;;;;12.88;3.70;;;;;;;10.81;100.00;98428.84;6298116;28;20128;-83
2022/04/09 06:50:41;;;;;;;5.65;2.28;;;;;;;10.69;100.00;98412.50;6297028;28;20044;-84
2022/04/09 06:53:41;;;;;;;10.20;3.97;;;;;;;10.75;100.00;98408.53;6296862;28;20101;-84
2022/04/09 06:56:44;;;;;;;2.08;1.55;;;;;;;10.74;100.00;98396.44;6297047;28;20055;-83
2022/04/09 06:59:44;;;;;;;3.47;1.63;;;;;;;10.70;100.00;98377.63;6296658;28;20389;-85
2022/04/09 07:02:45;;;;;;;5.07;1.83;;;;;;;10.74;100.00;98399.06;6296597;28;20048;-83
2022/04/09 07:05:46;;;;;;;2.42;1.40;;;;;;;10.77;100.00;98378.75;6296515;28;20137;-84
2022/04/09 07:08:47;;;;;;;4.55;1.70;;;;;;;10.80;100.00;98373.25;6296450;28;20048;-83
2022/04/09 07:11:48;;;;;;;3.25;1.05;;;;;;;10.79;100.00;98373.38;6280167;28;20059;-83
2022/04/09 07:14:49;;;;;;;4.15;1.40;;;;;;;10.95;100.00;98365.00;6289790;28;20051;-84
2022/04/09 07:17:50;;;;;;;5.85;1.60;;;;;;;10.98;100.00;98370.78;6312710;28;20040;-83
2022/04/09 07:20:51;;;;;;;2.45;1.23;;;;;;;10.91;100.00;98366.25;6312699;28;20051;-84
2022/04/09 07:23:51;;;;;;;3.85;1.27;;;;;;;11.00;100.00;98368.88;6295561;28;20048;-83
2022/04/09 07:26:52;;;;;;;4.43;1.27;;;;;;;11.02;100.00;98369.56;6312644;28;20037;-83
2022/04/09 07:29:53;;;;;;;4.03;1.27;;;;;;;10.98;100.00;98376.00;6312949;28;20647;-83
2022/04/09 07:32:58;;;;;;;4.70;1.50;;;;;;;11.12;100.00;98363.50;6295730;28;20044;-84
2022/04/09 07:35:59;;;;;;;3.78;1.70;;;;;;;11.13;100.00;98367.75;6295849;28;20407;-83
2022/04/09 07:39:00;;;;;;;3.65;1.50;;;;;;;11.12;100.00;98366.09;6295762;28;20059;-83
2022/04/09 07:42:01;;;;;;;1.15;0.88;;;;;;;10.99;100.00;98359.38;6295360;28;20044;-83
2022/04/09 07:45:02;;;;;;;1.70;1.05;;;;;;;10.93;100.00;98352.09;6278327;28;20048;-77
2022/04/09 07:48:05;;;;;;;2.92;1.40;;;;;;;11.04;100.00;98365.03;6312857;28;20044;-77
2022/04/09 07:51:06;;;;;;;4.22;1.65;;;;;;;11.10;100.00;98366.25;6278937;28;20066;-77
2022/04/09 07:54:07;;;;;;;2.95;1.42;;;;;;;11.14;100.00;98372.84;6312617;28;20061;-83
2022/04/09 07:57:08;;;;;;;4.85;1.80;;;;;;;11.23;100.00;98372.00;6278998;28;20396;-77
2022/04/09 08:00:09;;;;;;;4.38;1.38;;;;;;;11.06;100.00;98377.94;6306082;28;20047;-78
2022/04/09 08:03:10;;;;;;;2.90;1.40;;;;;;;11.22;100.00;98372.16;6303418;28;20044;-78
2022/04/09 08:06:11;;;;;;;6.00;1.55;;;;;;;11.17;100.00;98369.13;6266182;28;20495;-77
2022/04/09 08:09:11;;;;;;;2.17;1.23;;;;;;;11.34;100.00;98363.19;6300227;28;20400;-77
2022/04/09 08:12:13;;;;;;;3.70;1.58;;;;;;;11.35;100.00;98364.88;6314772;28;20059;-78
2022/04/09 08:15:14;;;;;;;2.47;1.07;;;;;;;11.42;100.00;98362.50;6320316;28;20553;-77
2022/04/09 08:18:15;;;;;;;3.08;1.30;;;;;;;11.36;100.00;98373.50;6303262;28;20649;-77
2022/04/09 08:21:17;;;;;;;2.97;1.10;;;;;;;11.26;100.00;98363.06;6286422;28;20056;-78
2022/04/09 08:24:18;;;;;;;4.88;1.30;;;;;;;11.22;100.00;98374.75;6287077;28;20052;-77
2022/04/09 08:27:19;;;;;;;3.95;1.30;;;;;;;11.32;100.00;98387.81;6320176;28;20052;-77
2022/04/09 08:30:21;;;;;;;4.95;1.73;;;;;;;11.22;100.00;98383.44;6303411;28;20032;-77
2022/04/09 08:33:22;;;;;;;;;;;;;;;11.34;100.00;98378.06;6303732;28;20048;-77
2022/04/09 08:36:23;;;;;;;9.32;1.70;;;;;;;11.36;100.00;98376.94;6320177;28;19920;-77
2022/04/09 08:39:24;;;;;;;3.55;2.20;;;;;;;11.34;100.00;98381.47;6336057;28;20128;-77
2022/04/09 08:42:30;;;;;;;2.80;1.80;;;;;;;11.42;100.00;98371.16;6318810;28;20047;-77
2022/04/09 08:45:41;;;;;;;3.03;1.77;;;;;;;11.52;100.00;98375.56;6318661;28;20048;-77
2022/04/09 08:48:46;;;;;;;3.92;2.30;;;;;;;11.49;100.00;98359.19;6302355;28;20055;-83
2022/04/09 08:51:47;;;;;;;4.60;2.20;;;;;;;11.57;100.00;98352.44;6318767;28;20499;-85
2022/04/09 08:54:48;;;;;;;4.68;2.40;;;;;;;11.72;100.00;98345.81;6318734;28;20056;-83
2022/04/09 08:57:49;;;;;;;8.18;2.55;;;;;;;11.81;100.00;98352.78;6306093;28;20047;-83
2022/04/09 09:00:50;;;;;;;5.30;2.20;;;;;;;11.71;100.00;98344.16;6289872;28;20529;-77
2022/04/09 09:03:52;;;;;;;4.07;2.22;;;;;;;11.76;100.00;98351.59;6323324;28;20391;-83
2022/04/09 09:06:52;;;;;;;5.25;2.80;;;;;;;11.64;100.00;98349.13;6306352;28;20044;-83
2022/04/09 09:10:14;;;;;;;4.32;2.72;;;;;;;11.56;100.00;98351.63;6311447;28;20040;-83
2022/04/09 09:13:15;;;;;;;6.43;2.65;;;;;;;11.49;100.00;98353.16;6297647;28;20056;-83
2022/04/09 09:16:29;;;;;;;8.25;3.53;;;;;;;11.51;100.00;98340.78;6308683;28;20120;-82
2022/04/09 09:19:47;;;;;;;5.45;3.30;;;;;;;11.61;100.00;98330.28;6301312;28;20497;-83
2022/04/09 09:22:49;;;;;;;12.20;3.47;;;;;;;11.83;100.00;98331.75;6297601;28;20048;-83
2022/04/09 09:25:51;;;;;;;8.10;3.93;;;;;;;11.84;100.00;98334.22;6297625;28;20044;-76
2022/04/09 09:28:55;;;;;;;5.63;3.53;;;;;;;11.95;100.00;98332.41;6297522;28;20288;-76
2022/04/09 09:31:58;;;;;;;6.75;4.07;;;;;;;11.85;100.00;98346.28;6297357;28;20048;-76
2022/04/09 09:34:59;;;;;;;8.38;3.85;;;;;;;11.92;100.00;98364.06;6297260;28;20056;-76
2022/04/09 09:38:27;;;;;;;5.88;3.65;;;;;;;11.86;100.00;98354.94;6297391;28;20557;-77
2022/04/09 09:41:28;;;;;;;4.40;3.35;;;;;;;11.90;100.00;98351.13;6297148;28;20048;-77
2022/04/09 09:44:34;;;;;;;4.35;3.47;;;;;;;12.01;100.00;98343.13;6326224;28;20071;-77
2022/04/09 09:47:35;;;;;;;6.78;3.67;;;;;;;11.82;100.00;98336.16;6289277;28;20484;-77
2022/04/09 09:50:42;;;;;;;5.07;3.45;;;;;;;12.03;100.00;98335.94;6322245;28;20061;-77
2022/04/09 09:53:43;;;;;;;6.40;4.15;;;;;;;11.93;100.00;98339.56;6321835;28;20087;-77
2022/04/09 09:56:44;;;;;;;9.10;3.72;;;;;;;12.03;100.00;98335.94;6288491;28;20048;-77
2022/04/09 09:59:45;;;;;;;6.13;3.85;;;;;;;12.06;100.00;98333.03;6339115;28;20082;-84
2022/04/09 10:02:46;;;;;;;5.05;3.13;;;;;;;11.93;100.00;98334.34;6338849;28;20488;-77
2022/04/09 10:05:49;;;;;;;3.13;2.35;;;;;;;11.89;100.00;98333.81;6321632;28;20055;-77
2022/04/09 10:08:50;;;;;;;5.72;2.45;;;;;;;11.98;100.00;98337.34;6304328;28;20056;-77
2022/04/09 10:11:52;;;;;;;4.13;2.38;;;;;;;11.87;100.00;98341.75;6304807;28;20085;-77
2022/04/09 10:14:58;;;;;;;7.85;2.80;;;;;;;11.88;100.00;98353.03;6321587;28;20059;-77
2022/04/09 10:18:00;;;;;;;4.57;2.75;;;;;;;11.87;100.00;98351.38;6321570;28;20086;-83
2022/04/09 10:21:02;;;;;;;3.95;2.80;;;;;;;11.83;100.00;98352.66;6279711;28;20057;-78
2022/04/09 10:24:06;;;;;;;5.28;3.38;;;;;;;11.94;100.00;98354.28;6297448;28;20041;-83
2022/04/09 10:27:08;;;;;;;6.63;3.00;;;;;;;12.00;100.00;98351.91;6312744;28;20052;-77
2022/04/09 10:30:14;;;;;;;6.05;2.75;;;;;;;12.01;100.00;98360.59;6312804;28;20425;-78
2022/04/09 10:33:24;;;;;;;7.88;3.53;;;;;;;12.03;100.00;98369.94;6312701;28;20505;-84
2022/04/09 10:36:40;;;;;;;5.75;3.40;;;;;;;12.13;100.00;98371.66;6296037;28;20055;-78
2022/04/09 10:39:45;;;;;;;6.68;3.17;;;;;;;12.14;100.00;98371.53;6312712;28;20048;-84
2022/04/09 10:42:49;;;;;;;4.75;3.30;;;;;;;12.19;100.00;98376.31;6295900;28;20044;-84
2022/04/09 10:46:02;;;;;;;9.77;3.50;;;;;;;12.14;100.00;98371.53;6296629;28;20040;-78
2022/04/09 10:49:17;;;;;;;7.18;3.00;;;;;;;12.16;100.00;98369.59;6295725;28;20115;-84
2022/04/09 10:52:20;;;;;;;7.05;3.10;;;;;;;12.11;100.00;98374.44;6279012;28;20478;-84
2022/04/09 10:55:25;;;;;;;5.55;3.30;;;;;;;12.14;100.00;98375.94;6302080;28;20498;-83
2022/04/09 10:58:26;;;;;;;5.95;3.50;;;;;;;12.15;100.00;98391.50;6320571;28;20043;-84
2022/04/09 11:01:48;;;;;;;7.95;4.32;;;;;;;12.20;100.00;98407.56;6304151;28;20373;-84
2022/04/09 11:04:49;;;;;;;28.80;17.35;;;;;;;12.12;100.00;98404.03;6321756;28;20127;-84
2022/04/09 11:08:13;;;;;;;10.35;6.88;;;;;;;11.94;100.00;98441.34;6321835;28;20407;-84
2022/04/09 11:11:24;;;;;;;16.17;9.68;;;;;;;11.77;100.00;98439.44;6303305;28;20098;-81
2022/04/09 11:14:25;;;;;;;15.73;6.72;;;;;;;11.70;100.00;98444.41;6303188;28;20389;-80
2022/04/09 11:17:37;;;;;;;9.35;6.30;;;;;;;11.68;100.00;98451.56;6319838;28;20055;-81
2022/04/09 11:20:39;;;;;;;10.13;6.45;;;;;;;11.82;100.00;98456.34;6336544;28;20059;-85
2022/04/09 11:23:39;;;;;;;9.68;5.25;;;;;;;11.44;100.00;98468.47;6287319;28;20389;-85
2022/04/09 11:26:40;;;;;;;10.00;4.05;;;;;;;11.25;100.00;98458.84;6320901;28;20143;-81
2022/04/09 11:29:43;;;;;;;40.33;3.63;;;;;;;11.16;100.00;98458.84;6320025;28;20082;-81
2022/04/09 11:32:47;;;;;;;;;;;;;;;10.95;100.00;98454.56;6287079;28;20059;-80
2022/04/09 11:35:48;;;;;;;4.40;2.55;;;;;;;10.63;100.00;98457.38;6303064;28;20007;-85
2022/04/09 11:38:49;;;;;;;3.72;2.30;;;;;;;10.61;100.00;98485.38;6302924;28;20051;-84
2022/04/09 11:41:50;;;;;;;5.72;2.10;;;;;;;10.56;100.00;98498.78;6289141;28;20047;-86
2022/04/09 11:44:51;;;;;;;4.57;1.63;;;;;;;10.41;100.00;98482.69;6296543;28;20041;-85
2022/04/09 11:47:55;;;;;;;4.90;2.13;;;;;;;10.39;100.00;98489.00;6319715;28;20303;-85
2022/04/09 11:50:55;;;;;;;3.17;1.48;;;;;;;10.22;100.00;98499.03;6285998;28;20075;-86
2022/04/09 11:54:17;;;;;;;4.53;2.45;;;;;;;10.26;100.00;98503.03;6319562;28;20036;-86
2022/04/09 11:57:18;;;;;;;3.60;1.90;;;;;;;10.36;100.00;98505.72;6296569;28;20067;-87
2022/04/09 12:00:23;;;;;;;3.55;1.48;;;;;;;10.26;100.00;98510.03;6302681;28;20048;-86
2022/04/09 12:03:26;;;;;;;2.70;1.98;;;;;;;10.35;100.00;98509.28;6320762;28;20040;-87
2022/04/09 12:06:27;;;;;;;2.88;2.33;;;;;;;10.34;100.00;98504.22;6302581;28;20135;-86
2022/04/09 12:09:29;;;;;;;4.30;2.13;;;;;;;10.26;100.00;98508.25;6320499;28;20048;-85
2022/04/09 12:12:30;;;;;;;4.57;2.92;;;;;;;10.16;100.00;98498.72;6320367;28;20105;-78
2022/04/09 12:15:33;;;;;;;6.07;3.22;;;;;;;10.17;100.00;98503.81;6319142;28;20046;-78
2022/04/09 12:18:36;;;;;;;5.05;3.00;;;;;;;10.28;100.00;98502.91;6335908;28;20139;-78
2022/04/09 12:21:38;;;;;;;5.35;3.00;;;;;;;10.17;100.00;98509.03;6285757;28;20082;-77
2022/04/09 12:24:58;;;;;;;5.75;3.17;;;;;;;10.25;100.00;98511.81;6318854;28;20046;-78
2022/04/09 12:27:59;;;;;;;5.57;2.70;;;;;;;10.21;100.00;98517.41;6282881;28;20078;-78
2022/04/09 12:31:01;;;;;;;5.60;2.97;;;;;;;10.18;100.00;98521.09;6286966;28;20385;-78
2022/04/09 12:34:03;;;;;;;5.35;2.70;;;;;;;10.15;100.00;98513.56;6290565;28;20091;-77
2022/04/09 12:37:05;;;;;;;7.18;3.75;;;;;;;10.26;100.00;98510.84;6307142;28;20040;-78
2022/04/09 12:40:17;;;;;;;5.32;4.05;;;;;;;10.27;100.00;98515.13;6323789;28;20082;-77
2022/04/09 12:43:41;;;;;;;11.23;9.93;;;;;;;10.34;100.00;98517.25;6323767;28;20116;-77
2022/04/09 12:46:48;;;;;;;16.55;14.77;;;;;;;10.57;100.00;98500.47;6291033;28;20058;-85
2022/04/09 12:49:49;;;;;;;9.70;8.70;;;;;;;10.58;100.00;98494.28;6299831;28;20536;-85
2022/04/09 12:52:52;;;;;;;5.80;5.20;;;;;;;10.81;100.00;98487.09;6265475;28;20139;-84
2022/04/09 12:55:53;;;;;;;3.20;2.90;;;;;;;10.82;100.00;98480.91;6281924;28;20048;-85
2022/04/09 12:58:54;;;;;;;1.63;1.52;;;;;;;10.89;100.00;98491.63;6307595;28;20091;-84
2022/04/09 13:01:55;;;;;;;2.83;1.20;;;;;;;11.07;100.00;98499.63;6324230;28;20048;-85
2022/04/09 13:04:57;;;;;;;3.47;2.50;;;;;;;11.28;100.00;98502.13;6306641;28;20052;-84
2022/04/09 13:07:58;;;;;;;3.05;2.58;;;;;;;11.37;100.00;98521.41;6322854;28;20481;-84
2022/04/09 13:10:59;;;;;;;3.17;2.28;;;;;;;11.57;100.00;98523.06;6306165;28;20036;-84
2022/04/09 13:14:00;;;;;;;2.97;2.00;;;;;;;11.72;100.00;98535.72;6289601;28;20056;-84
2022/04/09 13:17:02;;;;;;;4.63;2.35;;;;;;;11.79;100.00;98540.25;6324300;28;20090;-85
2022/04/09 13:20:08;;;;;;;5.10;3.28;;;;;;;11.89;100.00;98535.88;6306090;28;20058;-84
2022/04/09 13:23:11;;;;;;;2.65;2.00;;;;;;;11.73;100.00;98551.25;6324298;28;20044;-84
2022/04/09 13:26:12;;;;;;;2.65;1.60;;;;;;;11.53;100.00;98563.50;6323465;28;20040;-84
2022/04/09 13:29:12;;;;;;;2.88;1.13;;;;;;;11.46;100.00;98575.44;6289303;28;20089;-84
2022/04/09 13:32:13;;;;;;;2.30;1.70;;;;;;;11.37;100.00;98582.28;6322648;28;20139;-84
2022/04/09 13:35:16;;;;;;;2.53;1.80;;;;;;;11.12;100.00;98581.00;6288984;28;20036;-84
2022/04/09 13:38:17;;;;;;;3.42;2.38;;;;;;;11.04;100.00;98578.22;6306351;28;20048;-84
2022/04/09 13:41:18;;;;;;;8.10;3.08;;;;;;;10.96;100.00;98578.88;6321038;28;20535;-85
2022/04/09 13:44:19;;;;;;;2.55;1.52;;;;;;;11.02;100.00;98577.53;6322345;28;20056;-84
2022/04/09 13:47:20;;;;;;;1.70;0.93;;;;;;;10.92;100.00;98603.59;6322136;28;20519;-84
2022/04/09 13:50:22;;;;;;;2.63;1.35;;;;;;;10.85;100.00;98618.94;6322187;28;20052;-84
2022/04/09 13:53:23;;;;;;;5.90;3.63;;;;;;;11.19;100.00;98608.22;6304798;28;20389;-84
2022/04/09 13:56:24;;;;;;;3.67;3.15;;;;;;;11.17;100.00;98604.09;6319538;28;20051;-76
2022/04/09 13:59:26;;;;;;;2.40;1.58;;;;;;;11.02;100.00;98621.91;6320211;28;20044;-76
2022/04/09 14:02:27;;;;;;;2.90;1.60;;;;;;;9.52;100.00;98648.91;6321419;28;20055;-76
2022/04/09 14:05:28;;;;;;;4.40;2.45;;;;;;;8.51;100.00;98678.31;6322620;28;20557;-76
2022/04/09 14:08:29;;;;;;;3.30;1.95;;;;;;;8.40;100.00;98673.03;6287726;28;20052;-76